createdAt,value
2022-10-05T00:00:00.138Z,12.2
2022-10-05T00:05:00.145Z,12.2
2022-10-05T00:10:00.131Z,12.2
2022-10-05T00:15:00.104Z,10.5
2022-10-05T00:20:00.137Z,10.5
2022-10-05T00:25:00.106Z,9.2
2022-10-05T00:30:00.150Z,9.2
2022-10-05T00:35:00.125Z,10.9
2022-10-05T00:40:00.113Z,10.9
2022-10-05T00:45:00.108Z,10.7
2022-10-05T00:50:00.178Z,10.7
2022-10-05T00:55:00.103Z,12
2022-10-05T01:00:00.163Z,12
2022-10-05T01:05:00.108Z,13.3
2022-10-05T01:10:00.105Z,13.3
2022-10-05T01:15:00.115Z,12.3
2022-10-05T01:20:00.119Z,12.3
2022-10-05T01:25:00.133Z,13.7
2022-10-05T01:30:00.126Z,13.7
2022-10-05T01:35:00.129Z,14.7
2022-10-05T01:40:00.117Z,14.7
2022-10-05T01:45:00.106Z,15.1
2022-10-05T01:50:00.110Z,15.1
2022-10-05T01:55:00.116Z,18
2022-10-05T02:00:00.098Z,18
2022-10-05T02:05:02.480Z,14.5
2022-10-05T02:10:00.116Z,14.5
2022-10-05T02:15:00.114Z,13.2
2022-10-05T02:20:00.123Z,13.2
2022-10-05T02:25:00.113Z,10.1
2022-10-05T02:30:00.111Z,10.1
2022-10-05T02:35:00.116Z,16.3
2022-10-05T02:40:00.112Z,16.3
2022-10-05T02:45:00.120Z,11.4
2022-10-05T02:50:00.138Z,11.4
2022-10-05T02:55:00.108Z,17.5
2022-10-05T03:00:00.108Z,17.5
2022-10-05T03:05:00.141Z,14
2022-10-05T03:10:01.162Z,14
2022-10-05T03:15:00.103Z,14.5
2022-10-05T03:20:00.117Z,14.5
2022-10-05T03:25:00.090Z,13.7
2022-10-05T03:30:00.113Z,13.7
2022-10-05T03:35:00.109Z,13
2022-10-05T03:40:00.111Z,13
2022-10-05T03:45:00.106Z,13
2022-10-05T03:50:00.110Z,13
2022-10-05T03:55:00.117Z,10
2022-10-05T04:00:00.100Z,10
2022-10-05T04:05:00.146Z,10.9
2022-10-05T04:10:00.124Z,10.9
2022-10-05T04:15:00.126Z,11.9
2022-10-05T04:20:00.118Z,11.9
2022-10-05T04:25:00.133Z,16.2
2022-10-05T04:30:00.109Z,16.2
2022-10-05T04:35:00.123Z,17.8
2022-10-05T04:40:00.104Z,17.8
2022-10-05T04:45:00.112Z,13.4
2022-10-05T04:50:00.101Z,13.4
2022-10-05T04:55:00.116Z,15.5
2022-10-05T05:00:00.104Z,15.5
2022-10-05T05:05:00.134Z,18.5
2022-10-05T05:10:00.110Z,18.5
2022-10-05T05:15:00.118Z,15.9
2022-10-05T05:20:00.139Z,15.9
2022-10-05T05:25:00.116Z,14.3
2022-10-05T05:30:00.110Z,14.3
2022-10-05T05:35:00.115Z,13.1
2022-10-05T05:40:00.144Z,13.1
2022-10-05T05:45:00.125Z,11
2022-10-05T05:50:05.715Z,11
2022-10-05T05:55:00.133Z,12.7
2022-10-05T06:00:00.153Z,12.7
2022-10-05T06:05:00.129Z,13.8
2022-10-05T06:10:00.129Z,13.8
2022-10-05T06:15:00.105Z,9.2
2022-10-05T06:20:04.844Z,9.2
2022-10-05T06:25:00.120Z,10.2
2022-10-05T06:30:00.105Z,10.2
2022-10-05T06:35:00.164Z,12.2
2022-10-05T06:40:01.156Z,12.2
2022-10-05T06:45:00.112Z,14.1
2022-10-05T06:50:00.113Z,14.1
2022-10-05T06:55:00.124Z,13.4
2022-10-05T07:00:00.137Z,13.4
2022-10-05T07:05:00.116Z,8.6
2022-10-05T07:10:00.114Z,8.6
2022-10-05T07:15:00.271Z,11.2
2022-10-05T07:20:00.107Z,11.2
2022-10-05T07:25:00.111Z,10.5
2022-10-05T07:30:00.111Z,10.5
2022-10-05T07:35:00.109Z,12
2022-10-05T07:40:01.278Z,12
2022-10-05T07:45:00.103Z,11.6
2022-10-05T07:50:00.122Z,11.6
2022-10-05T07:55:00.107Z,10.9
2022-10-05T08:00:00.119Z,10.9
2022-10-05T08:05:00.097Z,10.3
2022-10-05T08:10:00.124Z,10.3
2022-10-05T08:15:00.115Z,9.6
2022-10-05T08:20:00.106Z,9.6
2022-10-05T08:25:00.114Z,10
2022-10-05T08:30:00.111Z,10
2022-10-05T08:35:00.109Z,9.6
2022-10-05T08:40:00.105Z,9.6
2022-10-05T08:45:00.103Z,11
2022-10-05T08:50:00.121Z,11
2022-10-05T08:55:00.108Z,9.4
2022-10-05T09:00:00.096Z,9.4
2022-10-05T09:05:00.115Z,9.1
2022-10-05T09:10:01.809Z,9.1
2022-10-05T09:15:20.792Z,14
2022-10-05T09:20:00.146Z,14
2022-10-05T09:25:00.099Z,9.7
2022-10-05T09:30:00.129Z,9.7
2022-10-05T09:35:00.119Z,8.3
2022-10-05T09:40:01.415Z,8.3
2022-10-05T09:45:00.113Z,10.6
2022-10-05T09:50:00.101Z,10.6
2022-10-05T09:55:00.101Z,9.6
2022-10-05T10:00:00.166Z,9.6
2022-10-05T10:05:00.096Z,11.5
2022-10-05T10:10:00.289Z,11.5
2022-10-05T10:15:02.772Z,9
2022-10-05T10:20:00.111Z,9
2022-10-05T10:25:00.103Z,10.3
2022-10-05T10:30:00.109Z,10.3
2022-10-05T10:35:00.117Z,9.1
2022-10-05T10:40:00.107Z,9.1
2022-10-05T10:45:00.095Z,5.7
2022-10-05T10:50:00.128Z,5.7
2022-10-05T10:55:00.120Z,8
2022-10-05T11:00:00.123Z,8
2022-10-05T11:05:00.097Z,5.8
2022-10-05T11:10:00.095Z,5.8
2022-10-05T11:15:00.122Z,4.1
2022-10-05T11:20:03.889Z,4.1
2022-10-05T11:25:00.095Z,5.2
2022-10-05T11:30:00.146Z,5.2
2022-10-05T11:35:00.124Z,5.1
2022-10-05T11:40:00.112Z,5.1
2022-10-05T11:45:00.131Z,4
2022-10-05T11:50:00.105Z,4
2022-10-05T11:55:15.603Z,6.2
2022-10-05T12:00:00.104Z,6.2
2022-10-05T12:05:00.108Z,6.7
2022-10-05T12:10:00.095Z,6.7
2022-10-05T12:15:00.101Z,6.6
2022-10-05T12:20:00.285Z,6.6
2022-10-05T12:25:00.118Z,5.7
2022-10-05T12:30:00.105Z,5.7
2022-10-05T12:35:01.964Z,5
2022-10-05T12:40:00.114Z,5
2022-10-05T12:45:00.098Z,7.4
2022-10-05T12:50:00.150Z,7.4
2022-10-05T12:55:00.106Z,5.8
2022-10-05T13:00:00.111Z,5.8
2022-10-05T13:05:00.125Z,6.1
2022-10-05T13:10:00.113Z,6.1
2022-10-05T13:15:00.112Z,5.9
2022-10-05T13:20:00.123Z,5.9
2022-10-05T13:25:00.095Z,4.6
2022-10-05T13:30:00.135Z,4.6
2022-10-05T13:35:00.112Z,4.9
2022-10-05T13:40:00.222Z,4.9
2022-10-05T13:45:00.091Z,5.9
2022-10-05T13:50:00.168Z,5.9
2022-10-05T13:55:00.115Z,8.5
2022-10-05T14:00:00.232Z,8.5
2022-10-05T14:05:00.112Z,5.1
2022-10-05T14:10:00.207Z,5.1
2022-10-05T14:15:00.114Z,7.6
2022-10-05T14:20:00.115Z,7.6
2022-10-05T14:25:00.112Z,6.4
2022-10-05T14:30:00.103Z,6.4
2022-10-05T14:35:00.142Z,6.8
2022-10-05T14:40:00.134Z,6.8
2022-10-05T14:45:00.134Z,6
2022-10-05T14:50:00.126Z,6
2022-10-05T14:55:00.120Z,6.3
2022-10-05T15:00:00.114Z,6.3
2022-10-05T15:05:00.125Z,4.6
2022-10-05T15:10:00.120Z,4.6
2022-10-05T15:15:00.135Z,9
2022-10-05T15:20:00.156Z,9
2022-10-05T15:25:00.103Z,4.4
2022-10-05T15:30:00.124Z,4.4
2022-10-05T15:35:00.350Z,5.4
2022-10-05T15:40:00.118Z,5.4
2022-10-05T15:45:00.121Z,5.3
2022-10-05T15:50:00.135Z,5.3
2022-10-05T15:55:00.113Z,5.2
2022-10-05T16:00:00.130Z,5.2
2022-10-05T16:05:04.555Z,5
2022-10-05T16:10:00.096Z,5
2022-10-05T16:15:00.146Z,5.8
2022-10-05T16:20:00.117Z,5.8
2022-10-05T16:25:00.121Z,5.8
2022-10-05T16:30:00.105Z,5.8
2022-10-05T16:35:00.104Z,5.2
2022-10-05T16:40:00.128Z,5.2
2022-10-05T16:45:00.119Z,5.7
2022-10-05T16:50:00.102Z,5.7
2022-10-05T16:55:00.119Z,5.9
2022-10-05T17:00:00.113Z,5.9
2022-10-05T17:05:00.137Z,4.8
2022-10-05T17:10:00.115Z,4.8
2022-10-05T17:15:00.114Z,5.1
2022-10-05T17:20:00.110Z,5.1
2022-10-05T17:25:00.130Z,6.4
2022-10-05T17:30:00.100Z,6.4
2022-10-05T17:35:00.171Z,9.5
2022-10-05T17:40:00.110Z,9.5
2022-10-05T17:45:00.105Z,8.5
2022-10-05T17:50:00.108Z,8.5
2022-10-05T17:55:00.098Z,7.6
2022-10-05T18:00:00.200Z,7.6
2022-10-05T18:05:00.099Z,6
2022-10-05T18:10:00.202Z,6
2022-10-05T18:15:00.111Z,8.8
2022-10-05T18:20:00.111Z,8.8
2022-10-05T18:25:00.112Z,10.9
2022-10-05T18:30:00.128Z,10.9
2022-10-05T18:35:02.116Z,8
2022-10-05T18:40:00.114Z,8
2022-10-05T18:45:00.124Z,9.2
2022-10-05T18:50:00.114Z,9.2
2022-10-05T18:55:00.097Z,8.3
2022-10-05T19:00:00.102Z,8.3
2022-10-05T19:05:00.108Z,9.3
2022-10-05T19:10:00.132Z,9.3
2022-10-05T19:15:00.132Z,8.3
2022-10-05T19:20:00.102Z,8.3
2022-10-05T19:25:00.145Z,8.3
2022-10-05T19:30:00.115Z,8.3
2022-10-05T19:35:00.111Z,9.4
2022-10-05T19:40:00.146Z,9.4
2022-10-05T19:45:00.119Z,6.6
2022-10-05T19:50:00.103Z,6.6
2022-10-05T19:55:00.134Z,8.7
2022-10-05T20:00:00.139Z,8.7
2022-10-05T20:05:00.130Z,7.3
2022-10-05T20:10:00.119Z,7.3
2022-10-05T20:15:00.149Z,5.9
2022-10-05T20:20:00.110Z,5.9
2022-10-05T20:25:00.225Z,11.8
2022-10-05T20:30:00.101Z,11.8
2022-10-05T20:35:00.200Z,10.1
2022-10-05T20:40:00.121Z,10.1
2022-10-05T20:45:00.099Z,8.4
2022-10-05T20:50:00.100Z,8.4
2022-10-05T20:55:00.109Z,7.8
2022-10-05T21:00:00.094Z,7.8
2022-10-05T21:05:00.186Z,7
2022-10-05T21:10:00.141Z,7
2022-10-05T21:15:00.125Z,7.4
2022-10-05T21:20:00.116Z,7.4
2022-10-05T21:25:00.132Z,9
2022-10-05T21:30:00.103Z,9
2022-10-05T21:35:00.115Z,7.2
2022-10-05T21:40:00.096Z,7.2
2022-10-05T21:45:00.104Z,7.3
2022-10-05T21:50:00.102Z,7.3
2022-10-05T21:55:00.100Z,6.4
2022-10-05T22:00:00.101Z,6.4
2022-10-05T22:05:00.125Z,7.1
2022-10-05T22:10:00.107Z,7.1
2022-10-05T22:15:00.118Z,8.2
2022-10-05T22:20:00.107Z,8.2
2022-10-05T22:25:00.112Z,6.9
2022-10-05T22:30:00.104Z,6.9
2022-10-05T22:35:00.121Z,6.7
2022-10-05T22:40:00.111Z,6.7
2022-10-05T22:45:00.128Z,4.5
2022-10-05T22:50:00.110Z,4.5
2022-10-05T22:55:00.112Z,6.4
2022-10-05T23:00:00.101Z,6.4
2022-10-05T23:05:00.138Z,7
2022-10-05T23:10:00.104Z,7
2022-10-05T23:15:00.132Z,5.7
2022-10-05T23:20:00.100Z,5.7
2022-10-05T23:25:00.101Z,5.5
2022-10-05T23:30:00.113Z,5.5
2022-10-05T23:35:00.108Z,5.6
2022-10-05T23:40:00.102Z,5.6
2022-10-05T23:45:00.098Z,4.1
2022-10-05T23:50:00.120Z,4.1
2022-10-05T23:55:00.095Z,8
